createdAt,value
2022-08-22T00:01:20.535Z,100340.50
2022-08-22T00:02:44.826Z,100302.34
2022-08-22T00:02:52.898Z,100303.78
2022-08-22T00:02:57.786Z,100366.94
2022-08-22T00:04:14.252Z,100335.94
2022-08-22T00:06:48.961Z,100331.75
2022-08-22T00:09:29.447Z,100334.31
2022-08-22T00:12:03.958Z,100329.09
2022-08-22T00:15:02.155Z,100333.75
2022-08-22T00:17:55.877Z,100335.38
2022-08-22T00:20:54.537Z,100342.91
2022-08-22T00:23:59.859Z,100338.84
2022-08-22T00:26:45.479Z,100332.91
2022-08-22T00:29:47.635Z,100339.72
2022-08-22T00:32:35.351Z,100341.09
2022-08-22T00:35:14.972Z,100341.63
2022-08-22T00:37:46.058Z,100338.03
2022-08-22T00:40:38.726Z,100335.44
2022-08-22T00:43:30.113Z,100341.03
2022-08-22T00:46:26.574Z,100346.75
2022-08-22T00:48:56.050Z,100355.16
2022-08-22T00:51:40.192Z,100355.72
2022-08-22T00:54:34.332Z,100354.06
2022-08-22T00:57:06.615Z,100347.94
2022-08-22T00:59:52.040Z,100353.03
2022-08-22T01:02:40.875Z,100344.66
2022-08-22T01:05:22.628Z,100354.63
2022-08-22T01:07:52.146Z,100351.13
2022-08-22T01:10:33.390Z,100344.88
2022-08-22T01:13:12.876Z,100345.47
2022-08-22T01:15:42.527Z,100331.19
2022-08-22T01:18:19.950Z,100329.84
2022-08-22T01:21:46.583Z,100337.69
2022-08-22T01:24:24.216Z,100333.00
2022-08-22T01:26:56.900Z,100326.38
2022-08-22T01:29:55.182Z,100331.72
2022-08-22T01:32:47.349Z,100332.78
2022-08-22T01:35:13.819Z,100328.91
2022-08-22T01:38:04.978Z,100330.41
2022-08-22T01:40:53.334Z,100321.81
2022-08-22T01:44:00.728Z,100333.13
2022-08-22T01:46:42.956Z,100320.75
2022-08-22T01:49:18.526Z,100317.28
2022-08-22T01:52:18.752Z,100312.97
2022-08-22T01:55:03.154Z,100319.66
2022-08-22T01:57:29.768Z,100315.31
2022-08-22T02:00:08.663Z,100313.22
2022-08-22T02:02:41.254Z,100316.41
2022-08-22T02:05:17.211Z,100312.94
2022-08-22T02:08:00.493Z,100313.19
2022-08-22T02:11:04.410Z,100314.00
2022-08-22T02:13:55.423Z,100314.25
2022-08-22T02:16:31.135Z,100316.06
2022-08-22T02:19:20.044Z,100314.19
2022-08-22T02:21:53.502Z,100317.13
2022-08-22T02:24:32.899Z,100322.47
2022-08-22T02:27:17.555Z,100307.72
2022-08-22T02:29:57.862Z,100310.41
2022-08-22T02:32:36.484Z,100312.28
2022-08-22T02:35:06.565Z,100314.41
2022-08-22T02:37:47.007Z,100309.59
2022-08-22T02:40:28.131Z,100304.50
2022-08-22T02:43:18.060Z,100312.03
2022-08-22T02:45:49.437Z,100301.28
2022-08-22T02:48:34.076Z,100309.59
2022-08-22T02:51:17.159Z,100314.63
2022-08-22T02:53:52.651Z,100321.88
2022-08-22T02:56:25.052Z,100318.72
2022-08-22T02:58:59.999Z,100327.28
2022-08-22T03:01:33.278Z,100329.16
2022-08-22T03:04:32.246Z,100326.22
2022-08-22T03:07:01.626Z,100332.91
2022-08-22T03:09:37.540Z,100335.91
2022-08-22T03:12:38.452Z,100334.56
2022-08-22T03:15:13.275Z,100341.44
2022-08-22T03:17:47.621Z,100339.56
2022-08-22T03:20:35.434Z,100337.16
2022-08-22T03:23:13.186Z,100336.63
2022-08-22T03:25:50.748Z,100329.00
2022-08-22T03:28:22.396Z,100321.84
2022-08-22T03:30:57.840Z,100323.97
2022-08-22T03:33:27.522Z,100321.25
2022-08-22T03:36:06.544Z,100316.34
2022-08-22T03:38:33.056Z,100317.34
2022-08-22T03:41:17.976Z,100316.78
2022-08-22T03:44:04.538Z,100318.66
2022-08-22T03:46:57.474Z,100322.69
2022-08-22T03:49:52.988Z,100322.44
2022-08-22T03:53:10.446Z,100325.38
2022-08-22T03:55:51.696Z,100333.97
2022-08-22T03:58:33.574Z,100336.97
2022-08-22T04:01:19.560Z,100338.28
2022-08-22T04:04:19.117Z,100343.91
2022-08-22T04:06:59.382Z,100338.28
2022-08-22T04:10:07.971Z,100341.28
2022-08-22T04:12:59.374Z,100334.53
2022-08-22T04:16:12.522Z,100336.94
2022-08-22T04:19:09.480Z,100337.78
2022-08-22T04:21:56.191Z,100337.47
2022-08-22T04:24:44.091Z,100340.97
2022-08-22T04:27:31.439Z,100337.22
2022-08-22T04:30:16.161Z,100343.41
2022-08-22T04:32:57.025Z,100340.25
2022-08-22T04:35:29.560Z,100335.72
2022-08-22T04:38:04.292Z,100341.91
2022-08-22T04:40:42.756Z,100337.78
2022-08-22T04:43:17.238Z,100330.47
2022-08-22T04:45:48.707Z,100331.91
2022-08-22T04:48:15.944Z,100334.72
2022-08-22T04:50:53.224Z,100333.53
2022-08-22T04:53:42.216Z,100336.75
2022-08-22T04:56:33.115Z,100335.66
2022-08-22T04:59:17.150Z,100338.78
2022-08-22T05:02:07.071Z,100335.06
2022-08-22T05:04:43.315Z,100343.09
2022-08-22T05:07:18.339Z,100352.16
2022-08-22T05:09:56.449Z,100352.22
2022-08-22T05:12:32.886Z,100346.56
2022-08-22T05:15:22.890Z,100349.84
2022-08-22T05:17:52.774Z,100352.31
2022-08-22T05:20:23.251Z,100349.44
2022-08-22T05:23:00.259Z,100358.09
2022-08-22T05:25:31.306Z,100367.22
2022-08-22T05:28:23.902Z,100362.69
2022-08-22T05:30:51.275Z,100366.47
2022-08-22T05:33:39.186Z,100366.75
2022-08-22T05:36:33.116Z,100359.75
2022-08-22T05:39:21.568Z,100362.97
2022-08-22T05:41:52.468Z,100353.84
2022-08-22T05:44:27.943Z,100352.47
2022-08-22T05:47:05.421Z,100359.75
2022-08-22T05:49:31.930Z,100357.88
2022-08-22T05:52:22.986Z,100358.69
2022-08-22T05:55:05.094Z,100357.59
2022-08-22T05:57:37.005Z,100362.66
2022-08-22T06:00:11.276Z,100362.13
2022-08-22T06:03:06.071Z,100358.50
2022-08-22T06:05:39.034Z,100357.59
2022-08-22T06:08:21.253Z,100354.06
2022-08-22T06:10:53.010Z,100357.44
2022-08-22T06:13:30.025Z,100363.25
2022-08-22T06:16:21.379Z,100358.88
2022-08-22T06:18:50.560Z,100364.25
2022-08-22T06:21:38.475Z,100369.34
2022-08-22T06:24:12.990Z,100373.91
2022-08-22T06:26:46.073Z,100376.22
2022-08-22T06:29:22.130Z,100375.91
2022-08-22T06:31:49.067Z,100379.56
2022-08-22T06:34:23.595Z,100382.53
2022-08-22T06:36:52.539Z,100378.41
2022-08-22T06:39:24.208Z,100388.81
2022-08-22T06:42:05.903Z,100379.53
2022-08-22T06:44:35.463Z,100388.00
2022-08-22T06:47:08.340Z,100385.31
2022-08-22T06:49:37.622Z,100389.66
2022-08-22T06:52:14.835Z,100387.88
2022-08-22T06:54:46.597Z,100385.56
2022-08-22T06:57:35.939Z,100391.66
2022-08-22T07:00:08.573Z,100386.97
2022-08-22T07:02:42.488Z,100389.66
2022-08-22T07:05:36.916Z,100395.78
2022-08-22T07:08:15.975Z,100396.53
2022-08-22T07:10:45.489Z,100388.13
2022-08-22T07:13:19.598Z,100384.75
2022-08-22T07:15:54.444Z,100391.50
2022-08-22T07:18:25.643Z,100391.28
2022-08-22T07:20:57.039Z,100395.50
2022-08-22T07:23:48.054Z,100388.53
2022-08-22T07:26:25.723Z,100389.91
2022-08-22T07:29:10.850Z,100389.25
2022-08-22T07:31:53.455Z,100382.41
2022-08-22T07:34:44.734Z,100385.25
2022-08-22T07:37:39.793Z,100393.97
2022-08-22T07:40:41.755Z,100388.50
2022-08-22T07:43:20.012Z,100388.34
2022-08-22T07:45:58.715Z,100388.16
2022-08-22T07:49:13.023Z,100391.25
2022-08-22T07:51:50.675Z,100384.94
2022-08-22T07:54:27.366Z,100381.22
2022-08-22T07:57:00.136Z,100381.50
2022-08-22T07:59:28.513Z,100384.69
2022-08-22T08:01:58.645Z,100375.03
2022-08-22T08:04:38.085Z,100378.56
2022-08-22T08:07:10.577Z,100386.47
2022-08-22T08:09:50.453Z,100388.16
2022-08-22T08:12:21.959Z,100386.75
2022-08-22T08:14:53.428Z,100383.91
2022-08-22T08:17:23.819Z,100387.47
2022-08-22T08:19:51.891Z,100383.44
2022-08-22T08:22:26.821Z,100389.53
2022-08-22T08:24:59.905Z,100386.31
2022-08-22T08:27:57.992Z,100391.84
2022-08-22T08:30:36.599Z,100390.75
2022-08-22T08:33:24.626Z,100384.38
2022-08-22T08:36:03.533Z,100387.44
2022-08-22T08:38:57.540Z,100388.75
2022-08-22T08:41:47.022Z,100385.63
2022-08-22T08:44:27.116Z,100395.13
2022-08-22T08:47:20.731Z,100396.84
2022-08-22T08:50:10.308Z,100393.03
2022-08-22T08:52:58.594Z,100384.22
2022-08-22T08:55:30.998Z,100390.56
2022-08-22T08:58:03.279Z,100391.63
2022-08-22T09:00:45.768Z,100386.91
2022-08-22T09:03:54.201Z,100384.13
2022-08-22T09:06:45.068Z,100392.00
2022-08-22T09:09:38.392Z,100381.28
2022-08-22T09:12:15.591Z,100381.63
2022-08-22T09:14:44.716Z,100379.66
2022-08-22T09:17:17.472Z,100374.00
2022-08-22T09:19:59.694Z,100369.31
2022-08-22T09:22:52.448Z,100365.22
2022-08-22T09:25:27.903Z,100363.75
2022-08-22T09:28:23.249Z,100364.34
2022-08-22T09:30:58.179Z,100362.16
2022-08-22T09:33:35.188Z,100364.28
2022-08-22T09:36:19.877Z,100355.91
2022-08-22T09:39:09.594Z,100353.03
2022-08-22T09:42:06.839Z,100356.09
2022-08-22T09:44:40.805Z,100350.34
2022-08-22T09:47:35.103Z,100352.09
2022-08-22T09:50:13.697Z,100346.53
2022-08-22T09:52:54.693Z,100344.09
2022-08-22T09:55:44.983Z,100344.56
2022-08-22T09:58:15.472Z,100352.88
2022-08-22T10:00:55.605Z,100349.69
2022-08-22T10:03:24.812Z,100350.19
2022-08-22T10:06:02.516Z,100344.44
2022-08-22T10:08:39.636Z,100344.25
2022-08-22T10:11:28.828Z,100340.41
2022-08-22T10:14:43.636Z,100341.56
2022-08-22T10:17:21.823Z,100330.00
2022-08-22T10:19:59.088Z,100334.88
2022-08-22T10:23:05.386Z,100325.34
2022-08-22T10:25:42.298Z,100322.00
2022-08-22T10:28:32.958Z,100327.28
2022-08-22T10:31:05.415Z,100324.56
2022-08-22T10:33:39.794Z,100325.38
2022-08-22T10:36:59.496Z,100326.81
2022-08-22T10:39:32.583Z,100319.56
2022-08-22T10:42:23.181Z,100319.78
2022-08-22T10:45:12.976Z,100317.66
2022-08-22T10:47:52.965Z,100313.69
2022-08-22T10:50:32.731Z,100309.97
2022-08-22T10:53:23.354Z,100303.41
2022-08-22T10:56:04.367Z,100310.28
2022-08-22T10:58:38.949Z,100304.88
2022-08-22T11:01:37.027Z,100302.09
2022-08-22T11:04:46.097Z,100295.25
2022-08-22T11:07:41.403Z,100301.19
2022-08-22T11:10:34.849Z,100304.22
2022-08-22T11:13:42.166Z,100304.84
2022-08-22T11:16:24.138Z,100295.91
2022-08-22T11:19:15.274Z,100293.16
2022-08-22T11:22:00.112Z,100296.47
2022-08-22T11:24:35.665Z,100289.34
2022-08-22T11:27:17.721Z,100284.19
2022-08-22T11:30:18.753Z,100281.94
2022-08-22T11:33:10.255Z,100285.78
2022-08-22T11:36:15.671Z,100273.78
2022-08-22T11:38:54.126Z,100277.31
2022-08-22T11:41:36.436Z,100265.13
2022-08-22T11:44:07.099Z,100273.47
2022-08-22T11:46:44.421Z,100263.25
2022-08-22T11:49:26.817Z,100273.66
2022-08-22T11:52:17.884Z,100264.50
2022-08-22T11:54:59.785Z,100260.47
2022-08-22T11:57:41.832Z,100259.06
2022-08-22T12:00:20.871Z,100262.09
2022-08-22T12:03:26.268Z,100261.47
2022-08-22T12:05:58.799Z,100259.06
2022-08-22T12:08:51.990Z,100259.38
2022-08-22T12:11:33.327Z,100256.22
2022-08-22T12:14:11.307Z,100245.31
2022-08-22T12:16:59.886Z,100255.06
2022-08-22T12:20:12.556Z,100260.34
2022-08-22T12:23:00.670Z,100263.72
2022-08-22T12:25:56.729Z,100250.09
2022-08-22T12:28:36.123Z,100243.84
2022-08-22T12:31:34.839Z,100241.81
2022-08-22T12:34:20.871Z,100248.50
2022-08-22T12:37:15.629Z,100246.56
2022-08-22T12:40:17.733Z,100241.44
2022-08-22T12:43:14.284Z,100240.03
2022-08-22T12:46:13.133Z,100230.72
2022-08-22T12:49:13.043Z,100224.00
2022-08-22T12:51:59.864Z,100230.41
2022-08-22T12:54:48.665Z,100230.03
2022-08-22T12:57:27.424Z,100232.34
2022-08-22T12:59:59.737Z,100226.72
2022-08-22T13:02:34.668Z,100224.66
2022-08-22T13:05:20.639Z,100225.13
2022-08-22T13:08:17.511Z,100221.56
2022-08-22T13:11:01.998Z,100220.63
2022-08-22T13:13:37.177Z,100221.06
2022-08-22T13:16:08.980Z,100213.25
2022-08-22T13:19:07.370Z,100218.91
2022-08-22T13:21:43.389Z,100210.75
2022-08-22T13:24:16.783Z,100213.13
2022-08-22T13:26:51.268Z,100208.16
2022-08-22T13:29:42.698Z,100203.69
2022-08-22T13:32:23.417Z,100207.34
2022-08-22T13:34:56.539Z,100205.47
2022-08-22T13:37:29.859Z,100205.13
2022-08-22T13:40:02.162Z,100200.66
2022-08-22T13:42:31.856Z,100200.81
2022-08-22T13:45:04.790Z,100199.06
2022-08-22T13:47:35.858Z,100198.75
2022-08-22T13:50:14.772Z,100193.47
2022-08-22T13:52:52.406Z,100195.53
2022-08-22T13:55:35.191Z,100187.66
2022-08-22T13:58:11.097Z,100192.34
2022-08-22T14:00:57.305Z,100192.50
2022-08-22T14:03:35.057Z,100183.16
2022-08-22T14:06:35.206Z,100185.72
2022-08-22T14:09:09.298Z,100181.22
2022-08-22T14:12:00.251Z,100175.00
2022-08-22T14:14:32.066Z,100182.19
2022-08-22T14:16:59.665Z,100167.13
2022-08-22T14:19:32.063Z,100169.22
2022-08-22T14:22:32.079Z,100165.91
2022-08-22T14:25:18.642Z,100160.94
2022-08-22T14:27:56.110Z,100161.88
2022-08-22T14:30:28.387Z,100162.97
2022-08-22T14:33:18.235Z,100167.75
2022-08-22T14:35:52.848Z,100167.78
2022-08-22T14:38:35.588Z,100164.06
2022-08-22T14:41:55.585Z,100158.34
2022-08-22T14:44:31.246Z,100169.06
2022-08-22T14:47:03.701Z,100171.94
2022-08-22T14:49:48.960Z,100161.69
2022-08-22T14:52:36.000Z,100166.47
2022-08-22T14:55:08.323Z,100166.47
2022-08-22T14:57:41.281Z,100163.16
2022-08-22T15:00:13.698Z,100159.25
2022-08-22T15:02:41.893Z,100163.63
2022-08-22T15:05:19.870Z,100163.38
2022-08-22T15:07:56.537Z,100151.03
2022-08-22T15:10:33.220Z,100149.28
2022-08-22T15:13:07.936Z,100155.03
2022-08-22T15:15:41.088Z,100150.56
2022-08-22T15:18:28.194Z,100141.59
2022-08-22T15:21:12.406Z,100143.38
2022-08-22T15:23:45.026Z,100141.25
2022-08-22T15:26:23.099Z,100143.22
2022-08-22T15:28:57.727Z,100141.63
2022-08-22T15:31:24.982Z,100139.34
2022-08-22T15:33:52.518Z,100132.47
2022-08-22T15:36:26.084Z,100131.19
2022-08-22T15:38:56.607Z,100140.00
2022-08-22T15:41:36.135Z,100140.81
2022-08-22T15:44:14.818Z,100139.00
2022-08-22T15:46:57.679Z,100130.28
2022-08-22T15:49:27.785Z,100132.25
2022-08-22T15:52:03.465Z,100131.28
2022-08-22T15:54:51.258Z,100133.31
2022-08-22T15:57:31.865Z,100128.22
2022-08-22T16:00:00.159Z,100134.19
2022-08-22T16:02:53.191Z,100127.31
2022-08-22T16:05:36.078Z,100127.63
2022-08-22T16:08:25.866Z,100127.41
2022-08-22T16:11:14.236Z,100120.59
2022-08-22T16:13:44.223Z,100114.56
2022-08-22T16:16:42.979Z,100117.13
2022-08-22T16:19:17.307Z,100118.03
2022-08-22T16:21:43.773Z,100122.50
2022-08-22T16:24:10.209Z,100127.00
2022-08-22T16:26:39.739Z,100116.50
2022-08-22T16:29:17.538Z,100117.44
2022-08-22T16:31:44.653Z,100122.56
2022-08-22T16:34:17.313Z,100121.88
2022-08-22T16:37:08.280Z,100121.09
2022-08-22T16:39:41.087Z,100124.47
2022-08-22T16:42:13.671Z,100125.59
2022-08-22T16:44:47.383Z,100127.03
2022-08-22T16:47:19.196Z,100126.56
2022-08-22T16:49:51.674Z,100125.13
2022-08-22T16:52:24.107Z,100118.06
2022-08-22T16:55:01.341Z,100125.91
2022-08-22T16:58:09.620Z,100129.13
2022-08-22T17:00:36.378Z,100118.88
2022-08-22T17:03:21.470Z,100129.28
2022-08-22T17:05:56.794Z,100122.41
2022-08-22T17:08:47.325Z,100126.25
2022-08-22T17:11:51.399Z,100130.09
2022-08-22T17:14:48.939Z,100132.47
2022-08-22T17:17:24.520Z,100141.13
2022-08-22T17:20:08.015Z,100147.19
2022-08-22T17:22:58.054Z,100152.00
2022-08-22T17:25:31.080Z,100164.16
2022-08-22T17:28:34.326Z,100161.59
2022-08-22T17:31:12.880Z,100164.47
2022-08-22T17:33:52.056Z,100164.63
2022-08-22T17:36:34.212Z,100162.81
2022-08-22T17:39:32.255Z,100157.63
2022-08-22T17:42:20.876Z,100169.50
2022-08-22T17:45:05.848Z,100164.50
2022-08-22T17:47:41.434Z,100173.97
2022-08-22T17:50:18.785Z,100178.91
2022-08-22T17:52:51.035Z,100173.97
2022-08-22T17:55:52.626Z,100171.69
2022-08-22T17:58:37.969Z,100172.63
2022-08-22T18:01:35.240Z,100164.69
2022-08-22T18:04:06.424Z,100176.47
2022-08-22T18:06:47.037Z,100172.28
2022-08-22T18:09:46.319Z,100178.31
2022-08-22T18:12:39.373Z,100183.09
2022-08-22T18:15:13.788Z,100178.84
2022-08-22T18:17:51.730Z,100186.75
2022-08-22T18:20:37.721Z,100183.91
2022-08-22T18:23:21.805Z,100195.78
2022-08-22T18:26:15.719Z,100191.91
2022-08-22T18:29:20.110Z,100190.13
2022-08-22T18:32:05.228Z,100200.78
2022-08-22T18:34:51.151Z,100195.28
2022-08-22T18:37:32.940Z,100200.03
2022-08-22T18:40:11.250Z,100203.44
2022-08-22T18:43:18.236Z,100212.59
2022-08-22T18:45:47.506Z,100217.88
2022-08-22T18:48:31.695Z,100213.28
2022-08-22T18:51:24.287Z,100212.06
2022-08-22T18:53:54.260Z,100214.88
2022-08-22T18:56:42.479Z,100217.63
2022-08-22T18:59:42.974Z,100228.34
2022-08-22T19:02:21.520Z,100228.09
2022-08-22T19:04:57.306Z,100233.47
2022-08-22T19:07:42.345Z,100237.66
2022-08-22T19:11:00.207Z,100236.03
2022-08-22T19:14:08.412Z,100241.97
2022-08-22T19:16:46.824Z,100249.19
2022-08-22T19:19:17.296Z,100242.53
2022-08-22T19:22:21.818Z,100244.84
2022-08-22T19:25:12.533Z,100247.91
2022-08-22T19:27:44.648Z,100246.19
2022-08-22T19:30:34.429Z,100251.81
2022-08-22T19:33:08.751Z,100248.28
2022-08-22T19:35:49.631Z,100254.50
2022-08-22T19:38:54.123Z,100261.91
2022-08-22T19:41:58.484Z,100264.66
2022-08-22T19:45:00.409Z,100268.41
2022-08-22T19:47:49.908Z,100268.16
2022-08-22T19:50:16.378Z,100265.69
2022-08-22T19:52:56.851Z,100266.50
2022-08-22T19:55:26.661Z,100274.94
2022-08-22T19:58:03.974Z,100278.69
2022-08-22T20:01:07.326Z,100277.94
2022-08-22T20:03:53.474Z,100282.03
2022-08-22T20:06:45.071Z,100290.13
2022-08-22T20:09:30.175Z,100294.97
2022-08-22T20:12:15.484Z,100289.25
2022-08-22T20:14:46.172Z,100292.19
2022-08-22T20:17:24.977Z,100291.91
2022-08-22T20:22:45.341Z,100303.88
2022-08-22T20:25:43.006Z,100296.50
2022-08-22T20:28:29.721Z,100300.00
2022-08-22T20:31:00.025Z,100306.09
2022-08-22T20:33:40.021Z,100305.47
2022-08-22T20:36:27.293Z,100306.94
2022-08-22T20:39:02.120Z,100303.00
2022-08-22T20:41:34.262Z,100309.44
2022-08-22T20:44:17.212Z,100309.31
2022-08-22T20:46:57.537Z,100307.94
2022-08-22T20:49:32.030Z,100306.59
2022-08-22T20:52:08.029Z,100307.19
2022-08-22T20:54:38.067Z,100300.88
2022-08-22T20:57:16.194Z,100310.72
2022-08-22T20:59:50.739Z,100308.81
2022-08-22T21:02:49.701Z,100303.88
2022-08-22T21:05:18.331Z,100318.09
2022-08-22T21:07:47.663Z,100303.25
2022-08-22T21:10:37.566Z,100312.47
2022-08-22T21:13:08.707Z,100313.06
2022-08-22T21:15:58.587Z,100316.88
2022-08-22T21:18:45.954Z,100315.63
2022-08-22T21:21:31.000Z,100319.16
2022-08-22T21:24:01.406Z,100322.16
2022-08-22T21:26:39.223Z,100318.25
2022-08-22T21:29:19.188Z,100316.44
2022-08-22T21:31:49.928Z,100320.50
2022-08-22T21:34:24.354Z,100327.91
2022-08-22T21:36:53.189Z,100326.31
2022-08-22T21:39:22.524Z,100327.38
2022-08-22T21:42:10.084Z,100325.09
2022-08-22T21:44:40.471Z,100324.19
2022-08-22T21:47:30.957Z,100315.66
2022-08-22T21:49:59.272Z,100323.50
2022-08-22T21:52:27.336Z,100327.31
2022-08-22T21:54:53.940Z,100328.94
2022-08-22T21:57:34.478Z,100324.38
2022-08-22T22:00:01.707Z,100324.69
2022-08-22T22:02:31.145Z,100323.00
2022-08-22T22:04:58.776Z,100330.03
2022-08-22T22:07:26.962Z,100332.13
2022-08-22T22:09:54.985Z,100330.50
2022-08-22T22:12:23.390Z,100332.06
2022-08-22T22:14:50.337Z,100332.63
2022-08-22T22:17:18.899Z,100341.59
2022-08-22T22:19:46.856Z,100338.09
2022-08-22T22:22:13.507Z,100338.66
2022-08-22T22:24:40.101Z,100338.88
2022-08-22T22:27:07.201Z,100341.84
2022-08-22T22:29:34.718Z,100339.22
2022-08-22T22:32:01.400Z,100345.19
2022-08-22T22:34:27.943Z,100342.75
2022-08-22T22:36:54.946Z,100348.22
2022-08-22T22:39:21.761Z,100343.38
2022-08-22T22:41:49.061Z,100341.44
2022-08-22T22:44:15.771Z,100345.53
2022-08-22T22:46:42.312Z,100348.47
2022-08-22T22:49:08.850Z,100347.06
2022-08-22T22:51:35.381Z,100346.16
2022-08-22T22:54:01.856Z,100345.50
2022-08-22T22:56:28.569Z,100344.22
2022-08-22T22:58:59.069Z,100342.72
2022-08-22T23:01:27.885Z,100344.31
2022-08-22T23:04:03.252Z,100344.31
2022-08-22T23:06:33.083Z,100341.09
2022-08-22T23:08:59.728Z,100351.09
2022-08-22T23:11:30.961Z,100341.13
2022-08-22T23:13:57.601Z,100352.41
2022-08-22T23:16:27.888Z,100345.94
2022-08-22T23:18:55.257Z,100351.91
2022-08-22T23:21:26.467Z,100355.09
2022-08-22T23:23:56.134Z,100353.78
2022-08-22T23:26:22.825Z,100353.78
2022-08-22T23:28:49.453Z,100357.00
2022-08-22T23:31:40.981Z,100352.41
2022-08-22T23:34:13.753Z,100349.22
2022-08-22T23:36:43.778Z,100348.13
2022-08-22T23:39:10.963Z,100354.59
2022-08-22T23:41:38.317Z,100356.72
2022-08-22T23:44:07.026Z,100349.66
2022-08-22T23:46:35.995Z,100349.72
2022-08-22T23:49:04.154Z,100352.47
2022-08-22T23:51:31.015Z,100354.06
2022-08-22T23:53:59.250Z,100352.97
2022-08-22T23:56:27.794Z,100356.22
2022-08-22T23:58:54.385Z,100357.56
